Time;durP1;ratioP1;P1;durP2;ratioP2;P2;SDS_P1;SDS_P2;PMS_P1;PMS_P2;Temp;Humidity;BMP_temperature;BMP_pressure;BME280_temperature;BME280_humidity;BME280_pressure;Samples;Min_cycle;Max_cycle;Signal;HPM_P1;HPM_P2
2022/04/08 00:00:37;;;;;;;7.88;1.90;;;;;;;4.23;100.00;98970.75;5068768;28;20079;-83
2022/04/08 00:03:06;;;;;;;5.80;1.75;;;;;;;4.56;100.00;98996.22;5072108;28;20082;-82
2022/04/08 00:05:33;;;;;;;5.32;1.88;;;;;;;4.13;100.00;98952.16;5072244;28;20064;-83
2022/04/08 00:08:00;;;;;;;8.85;1.90;;;;;;;4.31;100.00;98989.44;5058668;28;20059;-83
2022/04/08 00:10:26;;;;;;;8.75;2.25;;;;;;;4.36;100.00;98997.88;5052233;28;20049;-82
2022/04/08 00:12:53;;;;;;;6.13;1.77;;;;;;;4.53;100.00;99010.19;5057524;28;20044;-83
2022/04/08 00:15:20;;;;;;;6.38;1.63;;;;;;;4.51;100.00;98998.16;5073047;28;20106;-83
2022/04/08 00:17:47;;;;;;;7.93;1.73;;;;;;;4.13;100.00;98948.75;5071983;28;20138;-83
2022/04/08 00:20:14;;;;;;;7.90;1.73;;;;;;;4.17;100.00;98977.03;5073430;28;20395;-83
2022/04/08 00:22:42;;;;;;;8.43;3.45;;;;;;;4.69;100.00;99017.31;5069168;28;20052;-82
2022/04/08 00:25:09;;;;;;;11.35;2.08;;;;;;;4.64;100.00;99022.69;5072093;28;20048;-82
2022/04/08 00:27:36;;;;;;;7.85;3.42;;;;;;;4.68;100.00;98975.00;5072613;28;20379;-83
2022/04/08 00:30:03;;;;;;;5.85;1.95;;;;;;;4.16;100.00;98987.44;5071166;28;20045;-82
2022/04/08 00:32:30;;;;;;;5.43;1.50;;;;;;;4.24;100.00;98959.50;5070412;28;20048;-82
2022/04/08 00:34:58;;;;;;;4.82;1.67;;;;;;;4.01;100.00;98972.53;5072425;28;20059;-83
2022/04/08 00:37:24;;;;;;;5.60;1.60;;;;;;;4.32;100.00;98983.38;5073012;28;20486;-83
2022/04/08 00:39:52;;;;;;;6.07;1.38;;;;;;;4.54;100.00;99023.97;5072062;28;20474;-83
2022/04/08 00:42:18;;;;;;;5.93;1.33;;;;;;;4.69;100.00;99027.69;5070444;28;20051;-84
2022/04/08 00:44:45;;;;;;;6.32;1.50;;;;;;;4.37;100.00;99025.50;5067325;28;20052;-84
2022/04/08 00:47:12;;;;;;;5.20;1.45;;;;;;;4.27;100.00;99026.75;5052151;28;20061;-84
2022/04/08 00:49:39;;;;;;;7.03;1.70;;;;;;;4.44;100.00;99020.06;5051712;28;20045;-84
2022/04/08 00:52:06;;;;;;;10.75;2.20;;;;;;;4.27;100.00;99049.25;5052755;28;20049;-84
2022/04/08 00:54:33;;;;;;;4.63;1.42;;;;;;;4.25;100.00;99033.75;5071241;28;20390;-84
2022/04/08 00:57:00;;;;;;;4.07;1.63;;;;;;;4.51;100.00;99031.88;5072438;28;20148;-83
2022/04/08 00:59:28;;;;;;;9.65;1.90;;;;;;;4.56;100.00;99030.75;5066656;28;20049;-83
2022/04/08 01:01:57;;;;;;;10.57;1.63;;;;;;;4.59;100.00;99047.97;5068173;28;20044;-84
2022/04/08 01:04:27;;;;;;;6.40;1.67;;;;;;;4.50;100.00;99032.78;5082056;28;20795;-83
2022/04/08 01:06:54;;;;;;;7.25;1.60;;;;;;;4.73;100.00;99052.59;5068208;28;20072;-84
2022/04/08 01:09:22;;;;;;;8.00;2.25;;;;;;;4.52;100.00;99049.13;5052413;28;20055;-84
2022/04/08 01:11:49;;;;;;;8.93;1.70;;;;;;;4.01;100.00;98975.97;5052594;28;20045;-84
2022/04/08 01:14:17;;;;;;;4.25;1.40;;;;;;;4.24;100.00;98998.38;5069501;28;20059;-84
2022/04/08 01:16:44;;;;;;;6.53;1.65;;;;;;;4.62;100.00;99052.16;5071432;28;20083;-83
2022/04/08 01:19:11;;;;;;;7.40;2.15;;;;;;;4.43;100.00;99019.22;5070947;28;20053;-83
2022/04/08 01:21:38;;;;;;;6.50;1.92;;;;;;;4.10;100.00;99018.78;5072494;28;20044;-83
2022/04/08 01:24:09;;;;;;;11.40;2.55;;;;;;;3.66;100.00;98990.25;5071058;28;20639;-84
2022/04/08 01:26:36;;;;;;;7.53;1.80;;;;;;;4.50;100.00;99031.03;5072585;28;20044;-83
2022/04/08 01:29:03;;;;;;;8.50;2.15;;;;;;;4.40;100.00;99013.31;5071697;28;20442;-83
2022/04/08 01:31:30;;;;;;;5.13;1.77;;;;;;;4.20;100.00;98994.22;5070831;28;20058;-83
2022/04/08 01:33:57;;;;;;;7.15;1.83;;;;;;;4.13;100.00;98995.38;5071769;28;20049;-83
2022/04/08 01:36:25;;;;;;;13.05;2.25;;;;;;;3.91;100.00;98972.91;5071629;28;20470;-83
2022/04/08 01:38:51;;;;;;;9.30;2.25;;;;;;;4.29;100.00;99013.75;5071569;28;20102;-83
2022/04/08 01:41:20;;;;;;;5.25;1.42;;;;;;;4.03;100.00;98979.31;5070723;28;20051;-82
2022/04/08 01:43:47;;;;;;;7.55;2.10;;;;;;;4.05;100.00;98963.72;5070914;28;20122;-82
2022/04/08 01:46:14;;;;;;;11.80;1.75;;;;;;;4.14;100.00;98977.19;5071775;28;20049;-82
2022/04/08 01:48:41;;;;;;;9.32;2.42;;;;;;;4.14;100.00;99005.66;5071991;28;20087;-84
2022/04/08 01:51:08;;;;;;;7.93;2.20;;;;;;;4.01;100.00;98983.72;5070308;28;20056;-83
2022/04/08 01:53:34;;;;;;;7.55;1.90;;;;;;;3.87;100.00;98999.78;5070107;28;20379;-83
2022/04/08 01:56:01;;;;;;;7.50;1.80;;;;;;;4.01;100.00;99032.09;5070903;28;20059;-84
2022/04/08 01:58:28;;;;;;;6.13;1.90;;;;;;;4.19;100.00;99023.59;5071231;28;20055;-83
2022/04/08 02:00:55;;;;;;;9.98;2.38;;;;;;;3.92;100.00;99039.28;5053753;28;20049;-83
2022/04/08 02:03:22;;;;;;;8.05;2.00;;;;;;;3.98;100.00;99023.53;5067693;28;20040;-83
2022/04/08 02:05:48;;;;;;;12.13;2.83;;;;;;;4.06;100.00;99020.66;5070851;28;20045;-83
2022/04/08 02:08:15;;;;;;;9.70;1.90;;;;;;;4.08;100.00;99021.44;5070858;28;20497;-83
2022/04/08 02:10:42;;;;;;;6.63;1.80;;;;;;;3.96;100.00;99014.13;5070257;28;20052;-83
2022/04/08 02:13:09;;;;;;;9.77;2.67;;;;;;;4.06;100.00;99023.25;5071100;28;20051;-83
2022/04/08 02:15:36;;;;;;;5.03;1.73;;;;;;;4.30;100.00;99047.38;5070665;28;20136;-83
2022/04/08 02:18:04;;;;;;;10.93;2.33;;;;;;;4.13;100.00;99029.03;5070625;28;20478;-84
2022/04/08 02:20:32;;;;;;;6.93;2.03;;;;;;;3.87;100.00;99025.69;5070668;28;20055;-83
2022/04/08 02:22:59;;;;;;;13.18;2.65;;;;;;;3.93;100.00;99025.47;5073109;28;20041;-83
2022/04/08 02:25:27;;;;;;;10.60;1.70;;;;;;;4.03;100.00;99036.31;5071490;28;20406;-84
2022/04/08 02:27:54;;;;;;;9.30;1.98;;;;;;;3.96;100.00;99021.91;5071480;28;20057;-83
2022/04/08 02:30:21;;;;;;;6.05;1.67;;;;;;;3.89;100.00;99041.16;5059110;28;20596;-84
2022/04/08 02:32:48;;;;;;;8.77;2.10;;;;;;;4.14;100.00;99031.56;5054928;28;20044;-84
2022/04/08 02:35:15;;;;;;;12.05;2.20;;;;;;;4.12;100.00;99032.53;5072637;28;20048;-84
2022/04/08 02:37:42;;;;;;;6.47;2.05;;;;;;;4.03;100.00;99038.88;5073702;28;20052;-83
2022/04/08 02:40:09;;;;;;;7.00;2.15;;;;;;;4.05;100.00;99034.50;5073972;28;20052;-84
2022/04/08 02:42:36;;;;;;;6.95;2.03;;;;;;;3.96;100.00;99032.25;5072530;28;20045;-84
2022/04/08 02:45:03;;;;;;;10.90;2.40;;;;;;;4.20;100.00;99048.63;5073456;28;20050;-84
2022/04/08 02:47:30;;;;;;;13.18;3.58;;;;;;;4.25;100.00;99051.88;5076647;28;20048;-84
2022/04/08 02:49:57;;;;;;;7.80;1.75;;;;;;;3.29;100.00;98991.56;5094127;28;20056;-83
2022/04/08 02:52:24;;;;;;;9.30;2.00;;;;;;;3.85;100.00;98983.47;5091603;28;20138;-83
2022/04/08 02:54:51;;;;;;;6.03;1.67;;;;;;;3.71;100.00;99002.09;5073954;28;20102;-83
2022/04/08 02:57:18;;;;;;;9.70;2.38;;;;;;;3.97;100.00;99021.84;5074669;28;20048;-84
2022/04/08 02:59:44;;;;;;;7.47;1.85;;;;;;;3.87;100.00;99045.56;5073832;28;20533;-83
2022/04/08 03:02:11;;;;;;;11.23;1.80;;;;;;;3.77;100.00;99006.22;5074524;28;20682;-83
2022/04/08 03:04:38;;;;;;;10.07;1.70;;;;;;;3.36;100.00;98993.03;5073786;28;20045;-83
2022/04/08 03:07:05;;;;;;;11.73;2.00;;;;;;;4.16;100.00;99042.72;5065885;28;20494;-82
2022/04/08 03:09:32;;;;;;;7.55;1.77;;;;;;;3.54;100.00;99027.75;5053897;28;20135;-82
2022/04/08 03:11:58;;;;;;;8.40;2.17;;;;;;;3.53;100.00;99026.09;5064714;28;20479;-84
2022/04/08 03:14:25;;;;;;;7.68;2.20;;;;;;;3.25;100.00;98990.00;5072779;28;20048;-82
2022/04/08 03:16:52;;;;;;;7.47;1.77;;;;;;;3.56;100.00;98993.19;5074635;28;20095;-82
2022/04/08 03:19:19;;;;;;;6.72;1.80;;;;;;;3.29;100.00;99000.16;5074241;28;20055;-82
2022/04/08 03:21:46;;;;;;;4.82;1.65;;;;;;;3.46;100.00;98991.81;5073737;28;20409;-82
2022/04/08 03:24:14;;;;;;;5.63;1.60;;;;;;;3.49;100.00;99021.91;5069023;28;20057;-84
2022/04/08 03:26:42;;;;;;;7.78;1.65;;;;;;;3.84;100.00;99072.38;5054836;28;20471;-84
2022/04/08 03:29:09;;;;;;;10.70;2.10;;;;;;;4.11;100.00;99039.44;5053524;28;20053;-84
2022/04/08 03:31:36;;;;;;;12.57;2.05;;;;;;;4.10;100.00;99055.06;5054710;28;20048;-84
2022/04/08 03:34:03;;;;;;;6.60;1.80;;;;;;;3.71;100.00;99011.63;5070140;28;20080;-84
2022/04/08 03:36:30;;;;;;;7.00;1.50;;;;;;;3.94;100.00;99006.41;5075158;28;20131;-83
2022/04/08 03:38:57;;;;;;;7.18;1.80;;;;;;;4.08;100.00;99062.88;5074771;28;20048;-84
2022/04/08 03:41:24;;;;;;;8.50;1.83;;;;;;;4.24;100.00;99054.53;5073345;28;20059;-84
2022/04/08 03:43:50;;;;;;;7.80;1.70;;;;;;;3.76;100.00;99022.66;5073246;28;20057;-84
2022/04/08 03:46:18;;;;;;;5.05;1.83;;;;;;;3.92;100.00;99031.53;5072745;28;20075;-84
2022/04/08 03:48:44;;;;;;;9.93;2.88;;;;;;;4.02;100.00;99015.63;5074701;28;20060;-84
2022/04/08 03:51:11;;;;;;;7.03;1.80;;;;;;;3.99;100.00;99056.28;5074304;28;20044;-84
2022/04/08 03:53:38;;;;;;;6.13;1.70;;;;;;;3.89;100.00;99052.34;5074074;28;20672;-84
2022/04/08 03:56:05;;;;;;;4.53;1.30;;;;;;;4.01;100.00;99073.53;5074367;28;20135;-84
2022/04/08 03:58:32;;;;;;;4.28;1.40;;;;;;;3.80;100.00;99055.28;5073518;28;20115;-84
2022/04/08 04:00:58;;;;;;;3.47;1.30;;;;;;;3.66;100.00;99080.84;5074149;28;20048;-83
2022/04/08 04:03:25;;;;;;;8.20;1.50;;;;;;;3.15;100.00;99049.81;5073206;28;20398;-84
2022/04/08 04:05:52;;;;;;;5.82;1.40;;;;;;;3.51;100.00;99077.88;5073066;28;20048;-85
2022/04/08 04:08:19;;;;;;;4.68;1.35;;;;;;;3.24;100.00;99035.72;5072497;28;20128;-85
2022/04/08 04:10:46;;;;;;;7.22;1.67;;;;;;;3.41;100.00;99048.88;5072402;28;20429;-85
2022/04/08 04:13:13;;;;;;;5.40;1.45;;;;;;;3.37;100.00;99062.00;5073288;28;20044;-85
2022/04/08 04:15:40;;;;;;;4.13;1.15;;;;;;;3.77;100.00;99086.47;5073640;28;20076;-85
2022/04/08 04:18:08;;;;;;;11.27;1.98;;;;;;;3.67;100.00;99051.47;5072800;28;20059;-84
2022/04/08 04:20:36;;;;;;;5.47;1.50;;;;;;;3.56;100.00;99096.69;5074341;28;20074;-84
2022/04/08 04:23:02;;;;;;;7.85;1.67;;;;;;;3.40;100.00;99054.97;5072984;28;20119;-84
2022/04/08 04:25:29;;;;;;;5.55;1.30;;;;;;;3.67;100.00;99105.84;5073807;28;20044;-85
2022/04/08 04:27:56;;;;;;;8.18;1.58;;;;;;;3.83;100.00;99114.72;5072238;28;20048;-84
2022/04/08 04:30:27;;;;;;;8.70;1.95;;;;;;;3.61;100.00;99087.03;5072091;28;20062;-84
2022/04/08 04:32:55;;;;;;;6.18;1.42;;;;;;;3.81;100.00;99093.22;5071870;28;20513;-84
2022/04/08 04:35:22;;;;;;;9.80;2.00;;;;;;;3.47;100.00;99109.09;5073759;28;20411;-84
2022/04/08 04:37:48;;;;;;;3.97;1.48;;;;;;;3.93;100.00;99121.28;5072527;28;20048;-84
2022/04/08 04:40:15;;;;;;;10.55;2.88;;;;;;;3.78;100.00;99127.81;5073436;28;20375;-84
2022/04/08 04:42:42;;;;;;;8.65;1.63;;;;;;;3.56;100.00;99103.59;5072144;28;20046;-84
2022/04/08 04:45:10;;;;;;;9.95;1.65;;;;;;;3.48;100.00;99098.69;5073152;28;20078;-83
2022/04/08 04:47:38;;;;;;;7.57;1.88;;;;;;;3.62;100.00;99113.75;5073197;28;20055;-83
2022/04/08 04:50:05;;;;;;;9.70;1.77;;;;;;;3.85;100.00;99153.53;5073478;28;20135;-83
2022/04/08 04:52:32;;;;;;;6.78;1.88;;;;;;;3.64;100.00;99121.47;5054706;28;20077;-84
2022/04/08 04:54:58;;;;;;;11.13;1.80;;;;;;;3.85;100.00;99131.06;5073448;28;20091;-83
2022/04/08 04:57:26;;;;;;;5.35;1.70;;;;;;;3.78;100.00;99108.88;5072091;28;20393;-84
2022/04/08 04:59:53;;;;;;;5.20;1.75;;;;;;;3.46;100.00;99133.28;5072803;28;20048;-84
2022/04/08 05:02:20;;;;;;;4.60;1.58;;;;;;;3.79;100.00;99089.84;5071738;28;20055;-83
2022/04/08 05:04:47;;;;;;;8.43;2.25;;;;;;;3.63;100.00;99091.28;5072140;28;20139;-84
2022/04/08 05:07:13;;;;;;;8.80;1.92;;;;;;;3.48;100.00;99078.00;5073373;28;20048;-84
2022/04/08 05:09:41;;;;;;;5.50;1.70;;;;;;;3.80;100.00;99145.91;5072030;28;20049;-84
2022/04/08 05:12:09;;;;;;;15.13;2.28;;;;;;;3.89;100.00;99129.19;5067962;28;20394;-84
2022/04/08 05:14:36;;;;;;;5.45;1.70;;;;;;;3.74;100.00;99138.38;5072471;28;20062;-84
2022/04/08 05:17:03;;;;;;;7.05;1.45;;;;;;;3.65;100.00;99121.41;5073011;28;20475;-84
2022/04/08 05:19:30;;;;;;;8.88;1.50;;;;;;;3.55;100.00;99110.53;5072081;28;20479;-84
2022/04/08 05:21:57;;;;;;;5.60;1.30;;;;;;;3.71;100.00;99138.47;5072521;28;20045;-84
2022/04/08 05:24:23;;;;;;;7.85;1.48;;;;;;;3.93;100.00;99151.47;5067544;28;20053;-84
2022/04/08 05:26:51;;;;;;;5.88;1.50;;;;;;;3.82;100.00;99182.09;5051573;28;20055;-84
2022/04/08 05:29:17;;;;;;;4.90;1.45;;;;;;;3.51;100.00;99100.34;5051855;28;20060;-83
2022/04/08 05:31:44;;;;;;;4.18;1.30;;;;;;;3.87;100.00;99149.13;5063498;28;20053;-83
2022/04/08 05:34:11;;;;;;;10.00;1.42;;;;;;;3.85;100.00;99154.34;5072327;28;20040;-83
2022/04/08 05:36:38;;;;;;;4.88;1.40;;;;;;;3.72;100.00;99109.06;5071467;28;20041;-83
2022/04/08 05:39:05;;;;;;;5.95;2.08;;;;;;;4.14;100.00;99150.72;5072886;28;20406;-83
2022/04/08 05:41:32;;;;;;;4.60;1.48;;;;;;;3.82;100.00;99143.25;5073003;28;20483;-84
2022/04/08 05:43:58;;;;;;;17.92;4.50;;;;;;;3.55;100.00;99117.44;5070600;28;20049;-84
2022/04/08 05:46:25;;;;;;;8.25;1.63;;;;;;;3.69;100.00;99143.69;5073025;28;20055;-84
2022/04/08 05:48:52;;;;;;;17.60;3.63;;;;;;;3.84;100.00;99186.31;5071539;28;20044;-84
2022/04/08 05:51:19;;;;;;;9.40;1.73;;;;;;;3.42;100.00;99156.69;5071910;28;20413;-84
2022/04/08 05:54:05;;;;;;;7.28;1.80;;;;;;;3.89;100.00;99178.41;5067623;28;20045;-83
2022/04/08 05:56:31;;;;;;;5.68;1.90;;;;;;;3.63;100.00;99181.88;5072391;28;20429;-84
2022/04/08 05:58:58;;;;;;;14.25;3.22;;;;;;;3.54;100.00;99141.63;5071783;28;20778;-82
2022/04/08 06:01:25;;;;;;;11.02;3.33;;;;;;;3.60;100.00;99128.50;5066236;28;20074;-82
2022/04/08 06:03:52;;;;;;;14.68;2.63;;;;;;;3.48;100.00;99157.38;5069199;28;20049;-82
2022/04/08 06:06:18;;;;;;;10.38;2.28;;;;;;;4.08;100.00;99192.38;5072096;28;20078;-83
2022/04/08 06:08:45;;;;;;;6.95;2.03;;;;;;;3.80;100.00;99140.72;5071240;28;20062;-83
2022/04/08 06:11:12;;;;;;;12.73;1.92;;;;;;;4.23;100.00;99188.38;5073442;28;20486;-83
2022/04/08 06:13:40;;;;;;;7.70;1.98;;;;;;;3.95;100.00;99173.84;5066744;28;20394;-83
2022/04/08 06:16:07;;;;;;;10.98;2.30;;;;;;;3.87;100.00;99156.91;5074398;28;20048;-85
2022/04/08 06:18:35;;;;;;;7.55;1.73;;;;;;;3.89;100.00;99149.91;5074982;28;20405;-84
2022/04/08 06:21:04;;;;;;;10.98;2.25;;;;;;;4.01;100.00;99167.59;5074418;28;20483;-83
2022/04/08 06:23:31;;;;;;;8.77;2.22;;;;;;;4.16;100.00;99174.84;5074997;28;20044;-84
2022/04/08 06:25:57;;;;;;;14.38;2.97;;;;;;;3.97;100.00;99164.28;5074755;28;20056;-84
2022/04/08 06:28:24;;;;;;;12.68;2.72;;;;;;;4.16;100.00;99177.41;5076188;28;20692;-84
2022/04/08 06:30:51;;;;;;;13.82;2.15;;;;;;;3.84;100.00;99170.78;5075862;28;20104;-83
2022/04/08 06:33:18;;;;;;;9.32;2.90;;;;;;;4.05;100.00;99166.59;5072955;28;20041;-84
2022/04/08 06:35:44;;;;;;;13.75;3.67;;;;;;;3.97;100.00;99150.50;5083976;28;20048;-84
2022/04/08 06:38:11;;;;;;;17.35;3.72;;;;;;;4.52;100.00;99178.72;5094224;28;20058;-86
2022/04/08 06:40:41;;;;;;;12.32;2.65;;;;;;;4.42;100.00;99154.03;5095679;28;20062;-84
2022/04/08 06:43:08;;;;;;;10.20;2.53;;;;;;;4.66;100.00;99167.81;5085838;28;20486;-84
2022/04/08 06:45:35;;;;;;;13.98;3.28;;;;;;;4.62;100.00;99231.91;5074639;28;20076;-84
2022/04/08 06:48:03;;;;;;;13.60;2.80;;;;;;;5.07;100.00;99196.47;5075587;28;20052;-84
2022/04/08 06:50:29;;;;;;;19.60;3.83;;;;;;;4.77;100.00;99185.56;5075503;28;20079;-84
2022/04/08 06:53:00;;;;;;;23.52;4.78;;;;;;;4.81;100.00;99175.00;5074298;28;20130;-85
2022/04/08 06:55:29;;;;;;;16.15;3.67;;;;;;;5.16;100.00;99229.00;5075666;28;20379;-85
2022/04/08 06:57:58;;;;;;;17.77;4.10;;;;;;;5.32;100.00;99222.28;5075060;28;20053;-84
2022/04/08 07:00:25;;;;;;;18.85;3.83;;;;;;;5.61;100.00;99202.06;5075077;28;20049;-84
2022/04/08 07:02:51;;;;;;;22.35;3.92;;;;;;;6.14;100.00;99178.16;5073339;28;20083;-85
2022/04/08 07:05:18;;;;;;;14.93;3.55;;;;;;;6.35;100.00;99207.56;5074404;28;20055;-85
2022/04/08 07:07:45;;;;;;;17.77;3.88;;;;;;;6.00;100.00;99159.75;5075417;28;20040;-85
2022/04/08 07:10:12;;;;;;;22.60;3.53;;;;;;;6.54;100.00;99243.16;5075223;28;20066;-85
2022/04/08 07:12:39;;;;;;;17.75;4.00;;;;;;;6.34;100.00;99241.44;5072650;28;20045;-85
2022/04/08 07:15:06;;;;;;;22.73;3.95;;;;;;;6.67;100.00;99187.06;5066912;28;20441;-85
2022/04/08 07:17:35;;;;;;;17.98;3.88;;;;;;;6.73;100.00;99228.41;5057429;28;20041;-85
2022/04/08 07:20:15;;;;;;;16.30;3.60;;;;;;;6.96;100.00;99236.91;5074676;28;20044;-84
2022/04/08 07:22:43;;;;;;;20.17;4.40;;;;;;;7.47;100.00;99208.44;5073270;28;20052;-84
2022/04/08 07:25:10;;;;;;;21.15;4.38;;;;;;;8.04;100.00;99208.19;5075293;28;20456;-85
2022/04/08 07:27:48;;;;;;;19.00;3.65;;;;;;;7.46;100.00;99225.84;5074580;28;20052;-85
2022/04/08 07:30:17;;;;;;;16.63;4.07;;;;;;;8.39;100.00;99226.38;5073547;28;20051;-85
2022/04/08 07:32:46;;;;;;;20.55;4.43;;;;;;;7.49;100.00;99237.84;5072046;28;20398;-85
2022/04/08 07:35:13;;;;;;;19.85;3.95;;;;;;;7.06;100.00;99206.09;5074639;28;20045;-85
2022/04/08 07:37:40;;;;;;;22.50;3.88;;;;;;;7.22;100.00;99228.72;5073524;28;20087;-85
2022/04/08 07:40:08;;;;;;;21.30;4.15;;;;;;;7.39;100.00;99181.03;5072931;28;20060;-85
2022/04/08 07:42:35;;;;;;;17.20;3.50;;;;;;;7.18;100.00;99218.50;5071904;28;20044;-85
2022/04/08 07:45:03;;;;;;;15.90;4.03;;;;;;;6.63;100.00;99173.34;5073282;28;20055;-85
2022/04/08 07:47:30;;;;;;;15.13;3.70;;;;;;;6.80;100.00;99210.78;5072961;28;20058;-85
2022/04/08 07:49:58;;;;;;;16.45;3.47;;;;;;;6.51;100.00;99254.53;5072840;28;20409;-85
2022/04/08 07:52:25;;;;;;;16.52;5.05;;;;;;;6.72;100.00;99263.13;5074150;28;20060;-85
2022/04/08 07:54:54;;;;;;;16.58;3.80;;;;;;;6.33;100.00;99213.75;5073874;28;20055;-85
2022/04/08 07:57:21;;;;;;;15.07;2.80;;;;;;;6.27;100.00;99205.31;5074078;28;20095;-85
2022/04/08 07:59:48;;;;;;;19.90;4.07;;;;;;;6.24;100.00;99225.41;5073706;28;20054;-85
2022/04/08 08:02:15;;;;;;;12.00;3.05;;;;;;;5.73;100.00;99209.34;5074106;28;20074;-85
2022/04/08 08:04:47;;;;;;;30.53;6.10;;;;;;;6.37;100.00;99228.28;5073918;28;20045;-85
2022/04/08 08:07:14;;;;;;;16.20;3.67;;;;;;;5.79;100.00;99193.53;5065268;28;20102;-84
2022/04/08 08:09:41;;;;;;;19.60;4.40;;;;;;;5.84;100.00;99222.75;5066493;28;20052;-85
2022/04/08 08:12:20;;;;;;;14.63;3.20;;;;;;;6.62;100.00;99238.44;5073501;28;21566;-85
2022/04/08 08:14:46;;;;;;;11.35;3.22;;;;;;;7.33;100.00;99209.09;5072888;28;20050;-85
2022/04/08 08:17:13;;;;;;;20.95;3.97;;;;;;;7.56;100.00;99205.38;5074133;28;20378;-85
2022/04/08 08:19:40;;;;;;;22.60;3.75;;;;;;;7.64;100.00;99257.13;5073446;28;20093;-85
2022/04/08 08:22:07;;;;;;;15.93;3.45;;;;;;;7.43;100.00;99283.28;5072628;28;20105;-85
2022/04/08 08:24:34;;;;;;;19.35;3.55;;;;;;;7.46;100.00;99232.81;5072182;28;20055;-85
2022/04/08 08:27:01;;;;;;;21.95;4.93;;;;;;;7.24;100.00;99220.81;5069645;28;20076;-85
2022/04/08 08:29:27;;;;;;;26.05;4.55;;;;;;;7.54;100.00;99251.50;5071388;28;20052;-84
2022/04/08 08:31:54;;;;;;;14.38;3.60;;;;;;;7.88;100.00;99247.22;5069139;28;20135;-85
2022/04/08 08:34:21;;;;;;;19.55;4.35;;;;;;;8.12;100.00;99211.25;5062658;28;20044;-85
2022/04/08 08:36:48;;;;;;;13.00;3.95;;;;;;;8.91;100.00;99237.50;5063842;28;20084;-85
2022/04/08 08:39:16;;;;;;;15.35;4.07;;;;;;;8.72;100.00;99242.03;5073267;28;20144;-85
2022/04/08 08:41:43;;;;;;;18.88;4.05;;;;;;;8.35;100.00;99210.03;5070500;28;20052;-85
2022/04/08 08:44:10;;;;;;;20.63;3.58;;;;;;;8.12;100.00;99222.50;5070040;28;20048;-85
2022/04/08 08:46:37;;;;;;;16.02;3.85;;;;;;;8.83;100.00;99257.13;5072783;28;20421;-85
2022/04/08 08:49:04;;;;;;;18.10;3.03;;;;;;;8.18;100.00;99227.44;5071442;28;20048;-85
2022/04/08 08:51:36;;;;;;;17.73;4.38;;;;;;;8.36;100.00;99279.56;5071806;28;20131;-86
2022/04/08 08:54:03;;;;;;;18.07;3.27;;;;;;;9.26;100.00;99267.81;5063599;28;20051;-87
2022/04/08 08:56:30;;;;;;;21.55;4.15;;;;;;;8.46;100.00;99222.53;5062056;28;20085;-86
2022/04/08 08:58:57;;;;;;;25.92;4.85;;;;;;;8.79;100.00;99266.88;5067418;28;20479;-87
2022/04/08 09:01:23;;;;;;;20.45;4.43;;;;;;;8.99;100.00;99244.06;5072303;28;20055;-82
2022/04/08 09:03:50;;;;;;;23.85;4.70;;;;;;;8.67;100.00;99293.63;5070963;28;20051;-85
2022/04/08 09:06:17;;;;;;;31.92;4.45;;;;;;;7.54;100.00;99249.75;5066617;28;20052;-86
2022/04/08 09:08:58;;;;;;;17.45;4.78;;;;;;;7.71;100.00;99281.94;5052535;28;20049;-84
2022/04/08 09:11:26;;;;;;;26.42;4.50;;;;;;;7.53;100.00;99302.75;5053887;28;20053;-85
2022/04/08 09:14:01;;;;;;;19.27;3.78;;;;;;;7.24;96.61;99288.50;5071773;28;20040;-85
2022/04/08 09:16:29;;;;;;;20.42;3.67;;;;;;;7.80;96.60;99294.50;5071454;28;20059;-85
2022/04/08 09:18:56;;;;;;;20.65;3.90;;;;;;;8.66;94.85;99290.19;5072123;28;20084;-84
2022/04/08 09:21:25;;;;;;;15.18;3.97;;;;;;;9.28;99.33;99306.00;5072348;28;20045;-84
2022/04/08 09:23:52;;;;;;;20.10;4.05;;;;;;;8.81;100.00;99257.19;5066882;28;20045;-84
2022/04/08 09:26:19;;;;;;;24.33;4.68;;;;;;;8.15;100.00;99339.69;5070735;28;20048;-84
2022/04/08 09:28:47;;;;;;;16.27;3.92;;;;;;;8.02;100.00;99270.84;5072165;28;20044;-84
2022/04/08 09:31:19;;;;;;;16.48;3.75;;;;;;;8.54;100.00;99336.00;5072058;28;20045;-84
2022/04/08 09:33:48;;;;;;;19.95;4.20;;;;;;;8.36;100.00;99329.94;5072231;28;20536;-85
2022/04/08 09:36:30;;;;;;;18.27;3.78;;;;;;;8.04;100.00;99338.50;5071138;28;20059;-84
2022/04/08 09:38:57;;;;;;;14.40;3.63;;;;;;;8.34;100.00;99336.16;5067853;28;20049;-85
2022/04/08 09:41:54;;;;;;;16.08;3.47;;;;;;;9.10;100.00;99323.50;5070075;28;20044;-84
2022/04/08 09:44:24;;;;;;;18.60;3.83;;;;;;;8.86;99.47;99291.72;5069106;28;20050;-85
2022/04/08 09:46:52;;;;;;;19.35;3.80;;;;;;;8.95;97.35;99313.03;5076684;28;20051;-84
2022/04/08 09:49:19;;;;;;;18.10;4.47;;;;;;;8.86;96.58;99327.44;5065021;28;20060;-84
2022/04/08 09:51:50;;;;;;;17.38;4.72;;;;;;;8.25;91.54;99332.25;5076486;28;20458;-84
2022/04/08 09:54:22;;;;;;;19.73;3.75;;;;;;;8.54;97.75;99316.91;5069200;28;20044;-84
2022/04/08 09:56:50;;;;;;;18.40;3.60;;;;;;;9.14;99.73;99329.41;5076079;28;20095;-84
2022/04/08 09:59:21;;;;;;;15.82;4.43;;;;;;;9.74;100.00;99360.06;5076067;28;20131;-84
2022/04/08 10:02:09;;;;;;;17.55;3.55;;;;;;;9.25;92.85;99345.31;5075913;28;20052;-85
2022/04/08 10:04:37;;;;;;;19.75;3.83;;;;;;;9.44;91.98;99376.53;5073101;28;20067;-84
2022/04/08 10:07:05;;;;;;;14.75;2.85;;;;;;;8.22;86.57;99357.66;5076035;28;20055;-85
2022/04/08 10:09:35;;;;;;;15.52;3.50;;;;;;;7.73;86.28;99350.44;5076083;28;20078;-84
2022/04/08 10:12:23;;;;;;;12.77;2.97;;;;;;;8.23;81.76;99367.13;5074760;28;20051;-85
2022/04/08 10:15:10;;;;;;;15.85;3.03;;;;;;;8.67;79.47;99406.66;5074418;28;20041;-85
2022/04/08 10:17:37;;;;;;;12.75;3.95;;;;;;;8.15;76.75;99336.25;5076207;28;20078;-85
2022/04/08 10:20:25;;;;;;;16.38;3.28;;;;;;;8.83;77.17;99382.38;5075007;28;20673;-85
2022/04/08 10:23:09;;;;;;;17.30;3.08;;;;;;;8.82;76.14;99368.50;5075622;28;20413;-85
2022/04/08 10:25:43;;;;;;;21.52;3.85;;;;;;;8.83;74.83;99385.84;5074321;28;20048;-84
2022/04/08 10:28:17;;;;;;;12.18;3.08;;;;;;;9.26;69.90;99359.22;5074407;28;20048;-85
2022/04/08 10:30:48;;;;;;;18.05;3.25;;;;;;;9.07;69.44;99362.84;5073012;28;20055;-85
2022/04/08 10:33:28;;;;;;;20.55;3.40;;;;;;;9.06;69.75;99342.03;5063854;28;20048;-84
2022/04/08 10:36:00;;;;;;;11.48;3.45;;;;;;;8.85;72.91;99377.94;5064144;28;20048;-84
2022/04/08 10:38:37;;;;;;;17.60;3.78;;;;;;;8.88;73.90;99339.47;5062054;28;20049;-85
2022/04/08 10:41:10;;;;;;;15.65;3.03;;;;;;;8.88;73.81;99333.41;5064382;28;20049;-84
2022/04/08 10:43:48;;;;;;;14.48;3.20;;;;;;;9.20;72.39;99381.28;5069609;28;20471;-85
2022/04/08 10:46:32;;;;;;;14.70;3.47;;;;;;;8.87;74.58;99369.13;5068525;28;20044;-85
2022/04/08 10:48:59;;;;;;;12.88;2.50;;;;;;;8.60;76.78;99339.22;5070520;28;20057;-84
2022/04/08 10:51:30;;;;;;;18.73;3.20;;;;;;;8.93;76.30;99321.78;5068622;28;20052;-84
2022/04/08 10:54:04;;;;;;;15.07;3.20;;;;;;;8.86;75.19;99362.19;5060752;28;20075;-84
2022/04/08 10:56:37;;;;;;;15.38;3.08;;;;;;;8.97;76.76;99313.81;5060825;28;20052;-84
2022/04/08 10:59:04;;;;;;;12.98;3.03;;;;;;;10.16;74.31;99360.31;5063672;28;20139;-84
2022/04/08 11:01:36;;;;;;;14.82;3.10;;;;;;;9.53;74.41;99353.44;5066535;28;20352;-84
2022/04/08 11:04:05;;;;;;;11.20;2.80;;;;;;;9.65;74.92;99335.31;5066172;28;20053;-86
2022/04/08 11:06:34;;;;;;;15.70;3.25;;;;;;;9.68;72.13;99394.38;5069756;28;20053;-85
2022/04/08 11:09:11;;;;;;;16.80;3.90;;;;;;;10.18;72.72;99382.00;5065169;28;20048;-84
2022/04/08 11:11:40;;;;;;;21.88;3.50;;;;;;;9.44;72.65;99352.19;5074179;28;20044;-85
2022/04/08 11:14:09;;;;;;;14.18;3.67;;;;;;;9.58;69.60;99386.22;5074230;28;20054;-84
2022/04/08 11:16:41;;;;;;;22.35;3.97;;;;;;;9.60;71.21;99336.50;5074990;28;20490;-85
2022/04/08 11:19:11;;;;;;;14.35;3.53;;;;;;;9.28;74.73;99342.56;5073407;28;20455;-85
2022/04/08 11:21:40;;;;;;;14.85;3.20;;;;;;;9.87;74.22;99392.44;5074423;28;20049;-84
2022/04/08 11:24:13;;;;;;;12.43;3.10;;;;;;;9.31;75.39;99371.13;5065585;28;20049;-84
2022/04/08 11:26:50;;;;;;;12.77;3.53;;;;;;;9.96;73.63;99392.84;5068645;28;20040;-85
2022/04/08 11:29:23;;;;;;;17.20;3.15;;;;;;;9.21;73.45;99369.94;5064185;28;20057;-85
2022/04/08 11:31:52;;;;;;;20.23;2.97;;;;;;;9.38;71.65;99397.75;5064897;28;20513;-84
2022/04/08 11:34:24;;;;;;;13.68;2.80;;;;;;;9.28;75.88;99407.84;5061995;28;20045;-85